sensor_id;sensor_type;location;lat;lon;timestamp;temperature;humidity
83683;DHT22;73663;51.298;5.802;2023-12-14T00:03:52;14.20;59.90
83683;DHT22;73663;51.298;5.802;2023-12-14T00:08:53;14.20;59.80
83683;DHT22;73663;51.298;5.802;2023-12-14T00:13:53;14.20;59.80
83683;DHT22;73663;51.298;5.802;2023-12-14T00:18:54;14.10;59.80
83683;DHT22;73663;51.298;5.802;2023-12-14T00:23:54;14.10;59.80
83683;DHT22;73663;51.298;5.802;2023-12-14T00:28:55;14.00;59.80
83683;DHT22;73663;51.298;5.802;2023-12-14T00:33:55;13.90;59.80
83683;DHT22;73663;51.298;5.802;2023-12-14T00:38:56;13.90;59.80
83683;DHT22;73663;51.298;5.802;2023-12-14T00:43:57;13.90;59.80
83683;DHT22;73663;51.298;5.802;2023-12-14T00:48:57;13.90;59.80
83683;DHT22;73663;51.298;5.802;2023-12-14T00:53:58;13.80;59.70
83683;DHT22;73663;51.298;5.802;2023-12-14T00:58:58;13.80;59.70
83683;DHT22;73663;51.298;5.802;2023-12-14T01:03:59;13.70;59.80
83683;DHT22;73663;51.298;5.802;2023-12-14T01:09:00;13.70;59.70
83683;DHT22;73663;51.298;5.802;2023-12-14T01:14:00;13.70;59.70
83683;DHT22;73663;51.298;5.802;2023-12-14T01:19:01;13.60;59.70
83683;DHT22;73663;51.298;5.802;2023-12-14T01:24:01;13.60;59.70
83683;DHT22;73663;51.298;5.802;2023-12-14T01:29:02;13.60;59.70
83683;DHT22;73663;51.298;5.802;2023-12-14T01:34:02;13.50;59.70
83683;DHT22;73663;51.298;5.802;2023-12-14T01:39:03;13.40;59.60
83683;DHT22;73663;51.298;5.802;2023-12-14T01:44:03;13.30;59.60
83683;DHT22;73663;51.298;5.802;2023-12-14T01:49:11;13.30;59.60
83683;DHT22;73663;51.298;5.802;2023-12-14T01:54:11;13.20;59.60
83683;DHT22;73663;51.298;5.802;2023-12-14T01:59:12;13.10;59.70
83683;DHT22;73663;51.298;5.802;2023-12-14T02:04:13;13.10;59.60
83683;DHT22;73663;51.298;5.802;2023-12-14T02:09:14;13.10;59.60
83683;DHT22;73663;51.298;5.802;2023-12-14T02:14:15;13.00;59.60
83683;DHT22;73663;51.298;5.802;2023-12-14T02:19:15;13.00;59.50
83683;DHT22;73663;51.298;5.802;2023-12-14T02:24:16;12.90;59.50
83683;DHT22;73663;51.298;5.802;2023-12-14T02:29:16;12.80;59.60
83683;DHT22;73663;51.298;5.802;2023-12-14T02:34:17;12.80;59.60
83683;DHT22;73663;51.298;5.802;2023-12-14T02:39:19;12.80;59.60
83683;DHT22;73663;51.298;5.802;2023-12-14T02:44:19;12.80;59.60
83683;DHT22;73663;51.298;5.802;2023-12-14T02:49:20;12.80;59.60
83683;DHT22;73663;51.298;5.802;2023-12-14T02:54:21;12.80;59.50
83683;DHT22;73663;51.298;5.802;2023-12-14T02:59:21;12.80;59.50
83683;DHT22;73663;51.298;5.802;2023-12-14T03:04:22;12.60;59.50
83683;DHT22;73663;51.298;5.802;2023-12-14T03:09:23;12.50;59.60
83683;DHT22;73663;51.298;5.802;2023-12-14T03:14:23;12.50;59.60
83683;DHT22;73663;51.298;5.802;2023-12-14T03:19:31;12.50;59.60
83683;DHT22;73663;51.298;5.802;2023-12-14T03:24:31;12.50;59.60
83683;DHT22;73663;51.298;5.802;2023-12-14T03:29:32;12.50;59.60
83683;DHT22;73663;51.298;5.802;2023-12-14T03:34:32;12.50;59.60
83683;DHT22;73663;51.298;5.802;2023-12-14T03:39:41;12.50;59.60
83683;DHT22;73663;51.298;5.802;2023-12-14T03:44:41;12.50;59.50
83683;DHT22;73663;51.298;5.802;2023-12-14T03:49:42;12.50;59.50
83683;DHT22;73663;51.298;5.802;2023-12-14T03:54:43;12.30;59.50
83683;DHT22;73663;51.298;5.802;2023-12-14T03:59:43;12.20;59.50
83683;DHT22;73663;51.298;5.802;2023-12-14T04:04:44;12.20;59.50
83683;DHT22;73663;51.298;5.802;2023-12-14T04:09:46;12.20;59.60
83683;DHT22;73663;51.298;5.802;2023-12-14T04:14:53;12.20;59.60
83683;DHT22;73663;51.298;5.802;2023-12-14T04:19:53;12.30;59.50
83683;DHT22;73663;51.298;5.802;2023-12-14T04:24:54;12.30;59.50
83683;DHT22;73663;51.298;5.802;2023-12-14T04:30:02;12.30;59.50
83683;DHT22;73663;51.298;5.802;2023-12-14T04:35:05;12.20;59.50
83683;DHT22;73663;51.298;5.802;2023-12-14T04:40:07;12.20;59.40
83683;DHT22;73663;51.298;5.802;2023-12-14T04:45:08;12.10;59.40
83683;DHT22;73663;51.298;5.802;2023-12-14T04:50:11;12.10;59.50
83683;DHT22;73663;51.298;5.802;2023-12-14T04:55:12;12.10;59.50
83683;DHT22;73663;51.298;5.802;2023-12-14T05:00:13;12.20;59.50
83683;DHT22;73663;51.298;5.802;2023-12-14T05:05:14;12.20;59.40
83683;DHT22;73663;51.298;5.802;2023-12-14T05:10:14;12.10;59.30
83683;DHT22;73663;51.298;5.802;2023-12-14T05:15:22;12.00;59.40
83683;DHT22;73663;51.298;5.802;2023-12-14T05:20:22;12.10;59.40
83683;DHT22;73663;51.298;5.802;2023-12-14T05:25:23;12.00;59.40
83683;DHT22;73663;51.298;5.802;2023-12-14T05:30:23;12.10;59.40
83683;DHT22;73663;51.298;5.802;2023-12-14T05:35:24;12.10;59.50
83683;DHT22;73663;51.298;5.802;2023-12-14T05:40:24;12.10;59.40
83683;DHT22;73663;51.298;5.802;2023-12-14T05:45:25;12.10;59.30
83683;DHT22;73663;51.298;5.802;2023-12-14T05:50:25;12.00;59.30
83683;DHT22;73663;51.298;5.802;2023-12-14T05:55:26;11.90;59.30
83683;DHT22;73663;51.298;5.802;2023-12-14T06:00:27;11.80;59.40
83683;DHT22;73663;51.298;5.802;2023-12-14T06:05:27;11.80;59.40
83683;DHT22;73663;51.298;5.802;2023-12-14T06:10:28;11.70;59.40
83683;DHT22;73663;51.298;5.802;2023-12-14T06:15:29;11.80;59.40
83683;DHT22;73663;51.298;5.802;2023-12-14T06:20:30;11.70;59.40
83683;DHT22;73663;51.298;5.802;2023-12-14T06:25:30;11.70;59.40
83683;DHT22;73663;51.298;5.802;2023-12-14T06:30:31;11.70;59.40
83683;DHT22;73663;51.298;5.802;2023-12-14T06:35:31;11.70;59.40
83683;DHT22;73663;51.298;5.802;2023-12-14T06:40:32;11.70;59.40
83683;DHT22;73663;51.298;5.802;2023-12-14T06:45:32;11.70;59.30
83683;DHT22;73663;51.298;5.802;2023-12-14T06:50:33;11.70;59.30
83683;DHT22;73663;51.298;5.802;2023-12-14T06:55:33;11.70;59.30
83683;DHT22;73663;51.298;5.802;2023-12-14T07:00:34;11.70;59.30
83683;DHT22;73663;51.298;5.802;2023-12-14T07:05:35;11.70;59.30
83683;DHT22;73663;51.298;5.802;2023-12-14T07:10:36;11.60;59.30
83683;DHT22;73663;51.298;5.802;2023-12-14T07:15:36;11.70;59.30
83683;DHT22;73663;51.298;5.802;2023-12-14T07:20:37;11.70;59.20
83683;DHT22;73663;51.298;5.802;2023-12-14T07:25:37;11.70;59.20
83683;DHT22;73663;51.298;5.802;2023-12-14T07:30:38;11.60;59.20
83683;DHT22;73663;51.298;5.802;2023-12-14T07:35:38;11.60;59.20
83683;DHT22;73663;51.298;5.802;2023-12-14T07:40:39;11.60;59.20
83683;DHT22;73663;51.298;5.802;2023-12-14T07:45:40;11.60;59.20
83683;DHT22;73663;51.298;5.802;2023-12-14T07:50:41;11.50;59.20
83683;DHT22;73663;51.298;5.802;2023-12-14T07:55:41;11.60;59.20
83683;DHT22;73663;51.298;5.802;2023-12-14T08:00:42;11.60;59.20
83683;DHT22;73663;51.298;5.802;2023-12-14T08:05:42;11.70;59.20
83683;DHT22;73663;51.298;5.802;2023-12-14T08:10:43;11.70;59.20
83683;DHT22;73663;51.298;5.802;2023-12-14T08:15:44;11.70;59.20
83683;DHT22;73663;51.298;5.802;2023-12-14T08:20:44;11.70;59.20
83683;DHT22;73663;51.298;5.802;2023-12-14T08:25:45;11.70;59.20
83683;DHT22;73663;51.298;5.802;2023-12-14T08:30:45;11.70;59.20
83683;DHT22;73663;51.298;5.802;2023-12-14T08:35:46;11.70;59.20
83683;DHT22;73663;51.298;5.802;2023-12-14T08:40:46;11.70;59.20
83683;DHT22;73663;51.298;5.802;2023-12-14T08:45:47;11.80;59.30
83683;DHT22;73663;51.298;5.802;2023-12-14T08:50:48;11.90;59.20
83683;DHT22;73663;51.298;5.802;2023-12-14T08:55:49;11.90;59.20
83683;DHT22;73663;51.298;5.802;2023-12-14T09:00:57;11.90;59.20
83683;DHT22;73663;51.298;5.802;2023-12-14T09:05:57;11.90;59.20
83683;DHT22;73663;51.298;5.802;2023-12-14T09:10:59;11.90;59.20
83683;DHT22;73663;51.298;5.802;2023-12-14T09:15:59;12.00;59.10
83683;DHT22;73663;51.298;5.802;2023-12-14T09:21:14;11.90;59.10
83683;DHT22;73663;51.298;5.802;2023-12-14T09:26:15;11.90;59.10
83683;DHT22;73663;51.298;5.802;2023-12-14T09:31:16;11.90;59.10
83683;DHT22;73663;51.298;5.802;2023-12-14T09:36:16;11.80;59.00
83683;DHT22;73663;51.298;5.802;2023-12-14T09:41:17;11.70;59.10
83683;DHT22;73663;51.298;5.802;2023-12-14T09:46:18;11.70;59.10
83683;DHT22;73663;51.298;5.802;2023-12-14T09:51:19;11.70;59.10
83683;DHT22;73663;51.298;5.802;2023-12-14T09:56:20;11.70;59.10
83683;DHT22;73663;51.298;5.802;2023-12-14T10:01:25;11.70;59.20
83683;DHT22;73663;51.298;5.802;2023-12-14T10:06:26;11.90;59.10
83683;DHT22;73663;51.298;5.802;2023-12-14T10:11:26;11.80;59.10
83683;DHT22;73663;51.298;5.802;2023-12-14T10:16:34;11.70;59.10
83683;DHT22;73663;51.298;5.802;2023-12-14T10:21:35;11.70;59.10
83683;DHT22;73663;51.298;5.802;2023-12-14T10:26:36;11.70;59.20
83683;DHT22;73663;51.298;5.802;2023-12-14T10:31:37;11.70;59.20
83683;DHT22;73663;51.298;5.802;2023-12-14T10:36:38;11.70;59.10
83683;DHT22;73663;51.298;5.802;2023-12-14T10:41:39;11.70;59.20
83683;DHT22;73663;51.298;5.802;2023-12-14T10:46:40;11.60;59.10
83683;DHT22;73663;51.298;5.802;2023-12-14T10:51:41;11.60;59.10
83683;DHT22;73663;51.298;5.802;2023-12-14T10:56:42;11.50;59.10
83683;DHT22;73663;51.298;5.802;2023-12-14T11:01:43;11.50;59.10
83683;DHT22;73663;51.298;5.802;2023-12-14T11:06:44;11.60;59.10
83683;DHT22;73663;51.298;5.802;2023-12-14T11:17:05;11.70;59.10
83683;DHT22;73663;51.298;5.802;2023-12-14T11:22:17;11.70;59.10
83683;DHT22;73663;51.298;5.802;2023-12-14T11:27:30;11.70;59.00
83683;DHT22;73663;51.298;5.802;2023-12-14T11:32:31;11.70;59.00
83683;DHT22;73663;51.298;5.802;2023-12-14T11:37:31;11.70;59.00
83683;DHT22;73663;51.298;5.802;2023-12-14T11:42:35;11.70;59.00
83683;DHT22;73663;51.298;5.802;2023-12-14T11:47:35;11.70;59.00
83683;DHT22;73663;51.298;5.802;2023-12-14T11:52:36;11.70;59.10
83683;DHT22;73663;51.298;5.802;2023-12-14T11:57:37;11.90;59.10
83683;DHT22;73663;51.298;5.802;2023-12-14T12:02:37;11.90;59.00
83683;DHT22;73663;51.298;5.802;2023-12-14T12:07:38;11.90;59.00
83683;DHT22;73663;51.298;5.802;2023-12-14T12:13:00;11.90;58.90
83683;DHT22;73663;51.298;5.802;2023-12-14T12:18:03;11.90;58.90
83683;DHT22;73663;51.298;5.802;2023-12-14T12:23:04;11.80;58.90
83683;DHT22;73663;51.298;5.802;2023-12-14T12:28:05;11.70;58.80
83683;DHT22;73663;51.298;5.802;2023-12-14T12:33:05;11.80;58.90
83683;DHT22;73663;51.298;5.802;2023-12-14T12:38:06;12.00;59.10
83683;DHT22;73663;51.298;5.802;2023-12-14T12:43:06;12.50;59.40
83683;DHT22;73663;51.298;5.802;2023-12-14T12:48:07;13.50;59.20
83683;DHT22;73663;51.298;5.802;2023-12-14T12:53:08;14.60;59.00
83683;DHT22;73663;51.298;5.802;2023-12-14T12:58:08;15.00;58.20
83683;DHT22;73663;51.298;5.802;2023-12-14T13:03:09;14.60;57.80
83683;DHT22;73663;51.298;5.802;2023-12-14T13:08:10;13.90;57.60
83683;DHT22;73663;51.298;5.802;2023-12-14T13:13:11;13.30;57.60
83683;DHT22;73663;51.298;5.802;2023-12-14T13:18:14;12.80;57.70
83683;DHT22;73663;51.298;5.802;2023-12-14T13:23:16;12.50;57.80
83683;DHT22;73663;51.298;5.802;2023-12-14T13:28:17;12.10;57.90
83683;DHT22;73663;51.298;5.802;2023-12-14T13:33:17;11.90;58.00
83683;DHT22;73663;51.298;5.802;2023-12-14T13:38:18;11.90;57.80
83683;DHT22;73663;51.298;5.802;2023-12-14T13:43:19;11.80;58.00
83683;DHT22;73663;51.298;5.802;2023-12-14T13:48:19;11.80;58.00
83683;DHT22;73663;51.298;5.802;2023-12-14T13:53:20;11.80;58.10
83683;DHT22;73663;51.298;5.802;2023-12-14T13:58:21;11.90;58.00
83683;DHT22;73663;51.298;5.802;2023-12-14T14:03:21;11.90;58.00
83683;DHT22;73663;51.298;5.802;2023-12-14T14:08:23;11.90;58.00
83683;DHT22;73663;51.298;5.802;2023-12-14T14:13:24;11.90;57.90
83683;DHT22;73663;51.298;5.802;2023-12-14T14:18:24;11.90;57.80
83683;DHT22;73663;51.298;5.802;2023-12-14T14:23:25;11.70;57.90
83683;DHT22;73663;51.298;5.802;2023-12-14T14:28:25;11.70;57.90
83683;DHT22;73663;51.298;5.802;2023-12-14T14:33:26;11.70;57.90
83683;DHT22;73663;51.298;5.802;2023-12-14T14:38:27;11.70;58.00
83683;DHT22;73663;51.298;5.802;2023-12-14T14:43:27;11.70;57.90
83683;DHT22;73663;51.298;5.802;2023-12-14T14:48:29;11.70;58.00
83683;DHT22;73663;51.298;5.802;2023-12-14T14:53:29;11.70;57.90
83683;DHT22;73663;51.298;5.802;2023-12-14T14:58:30;11.60;57.90
83683;DHT22;73663;51.298;5.802;2023-12-14T15:03:30;11.50;57.90
83683;DHT22;73663;51.298;5.802;2023-12-14T15:08:31;11.50;57.90
83683;DHT22;73663;51.298;5.802;2023-12-14T15:13:31;11.50;58.00
83683;DHT22;73663;51.298;5.802;2023-12-14T15:18:39;11.50;57.90
83683;DHT22;73663;51.298;5.802;2023-12-14T15:23:43;11.50;57.90
83683;DHT22;73663;51.298;5.802;2023-12-14T15:28:44;11.50;57.90
83683;DHT22;73663;51.298;5.802;2023-12-14T15:33:45;11.50;57.90
83683;DHT22;73663;51.298;5.802;2023-12-14T15:38:45;11.50;58.00
83683;DHT22;73663;51.298;5.802;2023-12-14T15:43:46;11.50;57.90
83683;DHT22;73663;51.298;5.802;2023-12-14T15:48:47;11.50;57.90
83683;DHT22;73663;51.298;5.802;2023-12-14T15:53:54;11.50;57.90
83683;DHT22;73663;51.298;5.802;2023-12-14T15:58:57;11.50;58.00
83683;DHT22;73663;51.298;5.802;2023-12-14T16:03:57;11.60;57.90
83683;DHT22;73663;51.298;5.802;2023-12-14T16:08:58;11.60;58.00
83683;DHT22;73663;51.298;5.802;2023-12-14T16:13:58;11.70;58.00
83683;DHT22;73663;51.298;5.802;2023-12-14T16:18:59;11.70;58.00
83683;DHT22;73663;51.298;5.802;2023-12-14T16:24:03;11.70;58.00
83683;DHT22;73663;51.298;5.802;2023-12-14T16:29:10;11.70;58.00
83683;DHT22;73663;51.298;5.802;2023-12-14T16:34:13;11.70;58.00
83683;DHT22;73663;51.298;5.802;2023-12-14T16:39:13;11.70;58.00
83683;DHT22;73663;51.298;5.802;2023-12-14T16:44:14;11.70;58.00
83683;DHT22;73663;51.298;5.802;2023-12-14T16:49:14;11.70;58.00
83683;DHT22;73663;51.298;5.802;2023-12-14T16:54:15;11.70;58.00
83683;DHT22;73663;51.298;5.802;2023-12-14T16:59:15;11.70;58.00
83683;DHT22;73663;51.298;5.802;2023-12-14T17:04:16;11.70;58.00
83683;DHT22;73663;51.298;5.802;2023-12-14T17:09:17;11.70;58.00
83683;DHT22;73663;51.298;5.802;2023-12-14T17:14:18;11.70;58.00
83683;DHT22;73663;51.298;5.802;2023-12-14T17:19:20;11.70;58.00
83683;DHT22;73663;51.298;5.802;2023-12-14T17:24:21;11.80;58.00
83683;DHT22;73663;51.298;5.802;2023-12-14T17:29:21;11.80;58.00
83683;DHT22;73663;51.298;5.802;2023-12-14T17:34:23;11.80;58.00
83683;DHT22;73663;51.298;5.802;2023-12-14T17:39:25;11.70;58.00
83683;DHT22;73663;51.298;5.802;2023-12-14T17:44:26;11.70;58.00
83683;DHT22;73663;51.298;5.802;2023-12-14T17:49:27;11.70;58.00
83683;DHT22;73663;51.298;5.802;2023-12-14T17:54:27;11.60;58.00
83683;DHT22;73663;51.298;5.802;2023-12-14T17:59:28;11.60;58.10
83683;DHT22;73663;51.298;5.802;2023-12-14T18:04:28;11.60;58.00
83683;DHT22;73663;51.298;5.802;2023-12-14T18:09:29;11.60;58.00
83683;DHT22;73663;51.298;5.802;2023-12-14T18:14:29;11.60;58.00
83683;DHT22;73663;51.298;5.802;2023-12-14T18:19:30;11.60;58.10
83683;DHT22;73663;51.298;5.802;2023-12-14T18:24:30;11.60;58.00
83683;DHT22;73663;51.298;5.802;2023-12-14T18:29:31;11.50;58.10
83683;DHT22;73663;51.298;5.802;2023-12-14T18:34:32;11.50;58.10
83683;DHT22;73663;51.298;5.802;2023-12-14T18:39:32;11.50;58.00
83683;DHT22;73663;51.298;5.802;2023-12-14T18:44:33;11.50;58.10
83683;DHT22;73663;51.298;5.802;2023-12-14T18:49:34;11.50;58.10
83683;DHT22;73663;51.298;5.802;2023-12-14T18:54:34;11.50;58.10
83683;DHT22;73663;51.298;5.802;2023-12-14T18:59:35;11.60;58.10
83683;DHT22;73663;51.298;5.802;2023-12-14T19:04:35;11.50;58.20
83683;DHT22;73663;51.298;5.802;2023-12-14T19:09:36;11.50;58.10
83683;DHT22;73663;51.298;5.802;2023-12-14T19:14:36;11.50;58.20
83683;DHT22;73663;51.298;5.802;2023-12-14T19:19:37;11.50;58.20
83683;DHT22;73663;51.298;5.802;2023-12-14T19:24:38;11.50;58.20
83683;DHT22;73663;51.298;5.802;2023-12-14T19:29:39;11.50;58.20
83683;DHT22;73663;51.298;5.802;2023-12-14T19:34:39;11.40;58.20
83683;DHT22;73663;51.298;5.802;2023-12-14T19:39:41;11.40;58.20
83683;DHT22;73663;51.298;5.802;2023-12-14T19:44:42;11.40;58.20
83683;DHT22;73663;51.298;5.802;2023-12-14T19:49:43;11.40;58.30
83683;DHT22;73663;51.298;5.802;2023-12-14T19:54:45;11.40;58.30
83683;DHT22;73663;51.298;5.802;2023-12-14T19:59:45;11.40;58.30
83683;DHT22;73663;51.298;5.802;2023-12-14T20:04:47;11.40;58.30
83683;DHT22;73663;51.298;5.802;2023-12-14T20:09:48;11.40;58.40
83683;DHT22;73663;51.298;5.802;2023-12-14T20:14:51;11.40;58.30
83683;DHT22;73663;51.298;5.802;2023-12-14T20:19:51;11.40;58.40
83683;DHT22;73663;51.298;5.802;2023-12-14T20:24:52;11.40;58.40
83683;DHT22;73663;51.298;5.802;2023-12-14T20:29:53;11.40;58.40
83683;DHT22;73663;51.298;5.802;2023-12-14T20:34:54;11.40;58.40
83683;DHT22;73663;51.298;5.802;2023-12-14T20:39:54;11.40;58.50
83683;DHT22;73663;51.298;5.802;2023-12-14T20:44:55;11.40;58.40
83683;DHT22;73663;51.298;5.802;2023-12-14T20:49:56;11.40;58.40
83683;DHT22;73663;51.298;5.802;2023-12-14T20:54:56;11.40;58.40
83683;DHT22;73663;51.298;5.802;2023-12-14T21:00:00;11.40;58.40
83683;DHT22;73663;51.298;5.802;2023-12-14T21:05:01;11.30;58.40
83683;DHT22;73663;51.298;5.802;2023-12-14T21:10:01;11.30;58.50
83683;DHT22;73663;51.298;5.802;2023-12-14T21:15:02;11.30;58.50
83683;DHT22;73663;51.298;5.802;2023-12-14T21:20:03;11.30;58.50
83683;DHT22;73663;51.298;5.802;2023-12-14T21:25:04;11.30;58.50
83683;DHT22;73663;51.298;5.802;2023-12-14T21:30:05;11.40;58.50
83683;DHT22;73663;51.298;5.802;2023-12-14T21:35:12;11.40;58.60
83683;DHT22;73663;51.298;5.802;2023-12-14T21:40:13;11.50;58.60
83683;DHT22;73663;51.298;5.802;2023-12-14T21:45:15;11.50;58.60
83683;DHT22;73663;51.298;5.802;2023-12-14T21:50:15;11.50;58.60
83683;DHT22;73663;51.298;5.802;2023-12-14T21:55:16;11.50;58.60
83683;DHT22;73663;51.298;5.802;2023-12-14T22:00:17;11.50;58.60
83683;DHT22;73663;51.298;5.802;2023-12-14T22:05:19;11.50;58.60
83683;DHT22;73663;51.298;5.802;2023-12-14T22:10:20;11.50;58.60
83683;DHT22;73663;51.298;5.802;2023-12-14T22:15:20;11.50;58.70
83683;DHT22;73663;51.298;5.802;2023-12-14T22:20:21;11.60;58.70
83683;DHT22;73663;51.298;5.802;2023-12-14T22:25:22;11.70;58.70
83683;DHT22;73663;51.298;5.802;2023-12-14T22:30:22;11.70;58.60
83683;DHT22;73663;51.298;5.802;2023-12-14T22:35:23;11.70;58.70
83683;DHT22;73663;51.298;5.802;2023-12-14T22:40:24;11.70;58.70
83683;DHT22;73663;51.298;5.802;2023-12-14T22:45:25;11.70;58.70
83683;DHT22;73663;51.298;5.802;2023-12-14T22:50:25;11.70;58.70
83683;DHT22;73663;51.298;5.802;2023-12-14T22:55:26;11.70;58.70
83683;DHT22;73663;51.298;5.802;2023-12-14T23:00:27;11.70;58.70
83683;DHT22;73663;51.298;5.802;2023-12-14T23:05:32;11.70;58.70
83683;DHT22;73663;51.298;5.802;2023-12-14T23:10:32;11.70;58.70
83683;DHT22;73663;51.298;5.802;2023-12-14T23:15:33;11.80;58.70
83683;DHT22;73663;51.298;5.802;2023-12-14T23:20:33;11.80;58.70
83683;DHT22;73663;51.298;5.802;2023-12-14T23:25:34;11.90;58.70
83683;DHT22;73663;51.298;5.802;2023-12-14T23:30:35;11.80;58.80
83683;DHT22;73663;51.298;5.802;2023-12-14T23:35:35;11.80;58.70
83683;DHT22;73663;51.298;5.802;2023-12-14T23:40:36;11.80;58.80
83683;DHT22;73663;51.298;5.802;2023-12-14T23:45:36;11.80;58.80
83683;DHT22;73663;51.298;5.802;2023-12-14T23:50:37;11.90;58.90
83683;DHT22;73663;51.298;5.802;2023-12-14T23:55:38;11.90;58.90
